sensor_id;sensor_type;location;lat;lon;timestamp;pressure;altitude;pressure_sealevel;temperature;humidity
83200;BME280;73092;49.132;8.920;2024-01-30T00:01:53;100773.91;;;-1.85;100.00
83200;BME280;73092;49.132;8.920;2024-01-30T00:04:19;100765.31;;;-1.86;100.00
83200;BME280;73092;49.132;8.920;2024-01-30T00:06:45;100766.75;;;-1.92;100.00
83200;BME280;73092;49.132;8.920;2024-01-30T00:09:10;100774.56;;;-1.91;100.00
83200;BME280;73092;49.132;8.920;2024-01-30T00:11:39;100765.81;;;-1.94;100.00
83200;BME280;73092;49.132;8.920;2024-01-30T00:14:04;100775.31;;;-1.93;100.00
83200;BME280;73092;49.132;8.920;2024-01-30T00:16:30;100771.78;;;-1.95;100.00
83200;BME280;73092;49.132;8.920;2024-01-30T00:18:56;100776.94;;;-1.95;100.00
83200;BME280;73092;49.132;8.920;2024-01-30T00:21:22;100776.94;;;-1.95;100.00
83200;BME280;73092;49.132;8.920;2024-01-30T00:23:48;100780.31;;;-1.96;100.00
83200;BME280;73092;49.132;8.920;2024-01-30T00:26:13;100775.19;;;-1.96;100.00
83200;BME280;73092;49.132;8.920;2024-01-30T00:28:43;100776.94;;;-1.95;100.00
83200;BME280;73092;49.132;8.920;2024-01-30T00:31:08;100783.88;;;-1.94;100.00
83200;BME280;73092;49.132;8.920;2024-01-30T00:33:38;100779.63;;;-1.92;100.00
83200;BME280;73092;49.132;8.920;2024-01-30T00:36:05;100779.72;;;-1.91;100.00
83200;BME280;73092;49.132;8.920;2024-01-30T00:38:30;100780.72;;;-1.87;100.00
83200;BME280;73092;49.132;8.920;2024-01-30T00:40:56;100782.34;;;-1.89;100.00
83200;BME280;73092;49.132;8.920;2024-01-30T00:43:22;100777.06;;;-1.92;100.00
83200;BME280;73092;49.132;8.920;2024-01-30T00:45:49;100777.88;;;-1.93;100.00
83200;BME280;73092;49.132;8.920;2024-01-30T00:48:17;100776.78;;;-1.98;100.00
83200;BME280;73092;49.132;8.920;2024-01-30T00:50:42;100782.91;;;-1.96;100.00
83200;BME280;73092;49.132;8.920;2024-01-30T00:53:08;100788.75;;;-2.00;100.00
83200;BME280;73092;49.132;8.920;2024-01-30T00:55:33;100781.81;;;-2.01;100.00
83200;BME280;73092;49.132;8.920;2024-01-30T00:57:58;100776.47;;;-2.06;100.00
83200;BME280;73092;49.132;8.920;2024-01-30T01:00:24;100778.03;;;-2.10;100.00
83200;BME280;73092;49.132;8.920;2024-01-30T01:02:54;100782.16;;;-2.13;100.00
83200;BME280;73092;49.132;8.920;2024-01-30T01:05:20;100779.66;;;-2.12;100.00
83200;BME280;73092;49.132;8.920;2024-01-30T01:07:45;100789.09;;;-2.12;100.00
83200;BME280;73092;49.132;8.920;2024-01-30T01:10:12;100783.19;;;-2.10;100.00
83200;BME280;73092;49.132;8.920;2024-01-30T01:12:39;100779.47;;;-2.16;100.00
83200;BME280;73092;49.132;8.920;2024-01-30T01:15:05;100787.22;;;-2.16;100.00
83200;BME280;73092;49.132;8.920;2024-01-30T01:17:30;100782.78;;;-2.19;100.00
83200;BME280;73092;49.132;8.920;2024-01-30T01:19:57;100782.94;;;-2.16;100.00
83200;BME280;73092;49.132;8.920;2024-01-30T01:22:22;100781.00;;;-2.20;100.00
83200;BME280;73092;49.132;8.920;2024-01-30T01:24:48;100787.81;;;-2.22;100.00
83200;BME280;73092;49.132;8.920;2024-01-30T01:27:13;100779.00;;;-2.27;100.00
83200;BME280;73092;49.132;8.920;2024-01-30T01:29:38;100784.00;;;-2.30;100.00
83200;BME280;73092;49.132;8.920;2024-01-30T01:32:04;100779.59;;;-2.33;100.00
83200;BME280;73092;49.132;8.920;2024-01-30T01:34:29;100783.88;;;-2.33;100.00
83200;BME280;73092;49.132;8.920;2024-01-30T01:36:55;100780.31;;;-2.35;100.00
83200;BME280;73092;49.132;8.920;2024-01-30T01:39:22;100780.22;;;-2.38;100.00
83200;BME280;73092;49.132;8.920;2024-01-30T01:41:48;100783.59;;;-2.39;100.00
83200;BME280;73092;49.132;8.920;2024-01-30T01:44:14;100788.75;;;-2.39;100.00
83200;BME280;73092;49.132;8.920;2024-01-30T01:46:39;100784.31;;;-2.42;100.00
83200;BME280;73092;49.132;8.920;2024-01-30T01:49:05;100783.31;;;-2.45;100.00
83200;BME280;73092;49.132;8.920;2024-01-30T01:51:33;100784.97;;;-2.47;100.00
83200;BME280;73092;49.132;8.920;2024-01-30T01:54:00;100778.16;;;-2.45;100.00
83200;BME280;73092;49.132;8.920;2024-01-30T01:56:27;100778.03;;;-2.48;100.00
83200;BME280;73092;49.132;8.920;2024-01-30T01:58:54;100784.97;;;-2.47;100.00
83200;BME280;73092;49.132;8.920;2024-01-30T02:01:21;100775.53;;;-2.47;100.00
83200;BME280;73092;49.132;8.920;2024-01-30T02:03:46;100777.97;;;-2.50;100.00
83200;BME280;73092;49.132;8.920;2024-01-30T02:06:14;100771.00;;;-2.52;100.00
83200;BME280;73092;49.132;8.920;2024-01-30T02:08:40;100771.59;;;-2.58;100.00
83200;BME280;73092;49.132;8.920;2024-01-30T02:11:05;100777.47;;;-2.61;100.00
83200;BME280;73092;49.132;8.920;2024-01-30T02:13:31;100768.97;;;-2.60;100.00
83200;BME280;73092;49.132;8.920;2024-01-30T02:15:56;100774.91;;;-2.61;100.00
83200;BME280;73092;49.132;8.920;2024-01-30T02:18:22;100770.72;;;-2.59;100.00
83200;BME280;73092;49.132;8.920;2024-01-30T02:20:48;100779.84;;;-2.65;100.00
83200;BME280;73092;49.132;8.920;2024-01-30T02:23:15;100779.13;;;-2.63;100.00
83200;BME280;73092;49.132;8.920;2024-01-30T02:25:41;100779.63;;;-2.70;100.00
83200;BME280;73092;49.132;8.920;2024-01-30T02:28:10;100774.34;;;-2.73;100.00
83200;BME280;73092;49.132;8.920;2024-01-30T02:30:37;100774.28;;;-2.74;100.00
83200;BME280;73092;49.132;8.920;2024-01-30T02:33:02;100785.59;;;-2.71;100.00
83200;BME280;73092;49.132;8.920;2024-01-30T02:35:28;100776.31;;;-2.67;100.00
83200;BME280;73092;49.132;8.920;2024-01-30T02:37:53;100773.53;;;-2.72;100.00
83200;BME280;73092;49.132;8.920;2024-01-30T02:40:18;100770.00;;;-2.74;100.00
83200;BME280;73092;49.132;8.920;2024-01-30T02:42:44;100771.63;;;-2.76;100.00
83200;BME280;73092;49.132;8.920;2024-01-30T02:45:10;100785.44;;;-2.74;100.00
83200;BME280;73092;49.132;8.920;2024-01-30T02:47:36;100776.72;;;-2.77;100.00
83200;BME280;73092;49.132;8.920;2024-01-30T02:50:01;100780.16;;;-2.77;100.00
83200;BME280;73092;49.132;8.920;2024-01-30T02:52:27;100786.19;;;-2.76;100.00
83200;BME280;73092;49.132;8.920;2024-01-30T02:54:52;100781.78;;;-2.79;100.00
83200;BME280;73092;49.132;8.920;2024-01-30T02:57:17;100780.03;;;-2.80;100.00
83200;BME280;73092;49.132;8.920;2024-01-30T02:59:43;100780.03;;;-2.80;100.00
83200;BME280;73092;49.132;8.920;2024-01-30T03:02:08;100778.41;;;-2.78;100.00
83200;BME280;73092;49.132;8.920;2024-01-30T03:04:33;100771.56;;;-2.77;100.00
83200;BME280;73092;49.132;8.920;2024-01-30T03:06:59;100767.28;;;-2.77;100.00
83200;BME280;73092;49.132;8.920;2024-01-30T03:09:24;100769.47;;;-2.67;100.00
83200;BME280;73092;49.132;8.920;2024-01-30T03:11:49;100770.84;;;-2.75;100.00
83200;BME280;73092;49.132;8.920;2024-01-30T03:14:15;100762.97;;;-2.78;100.00
83200;BME280;73092;49.132;8.920;2024-01-30T03:16:40;100757.69;;;-2.81;100.00
83200;BME280;73092;49.132;8.920;2024-01-30T03:19:06;100761.94;;;-2.82;100.00
83200;BME280;73092;49.132;8.920;2024-01-30T03:21:33;100760.13;;;-2.84;100.00
83200;BME280;73092;49.132;8.920;2024-01-30T03:23:58;100762.69;;;-2.84;100.00
83200;BME280;73092;49.132;8.920;2024-01-30T03:26:24;100766.00;;;-2.87;100.00
83200;BME280;73092;49.132;8.920;2024-01-30T03:28:50;100773.25;;;-2.78;100.00
83200;BME280;73092;49.132;8.920;2024-01-30T03:31:15;100770.53;;;-2.81;100.00
83200;BME280;73092;49.132;8.920;2024-01-30T03:33:42;100773.69;;;-2.69;100.00
83200;BME280;73092;49.132;8.920;2024-01-30T03:36:08;100771.63;;;-2.76;100.00
83200;BME280;73092;49.132;8.920;2024-01-30T03:38:34;100773.13;;;-2.81;100.00
83200;BME280;73092;49.132;8.920;2024-01-30T03:40:59;100774.72;;;-2.83;100.00
83200;BME280;73092;49.132;8.920;2024-01-30T03:43:25;100774.59;;;-2.86;100.00
83200;BME280;73092;49.132;8.920;2024-01-30T03:45:50;100767.53;;;-2.90;100.00
83200;BME280;73092;49.132;8.920;2024-01-30T03:48:16;100777.97;;;-2.87;100.00
83200;BME280;73092;49.132;8.920;2024-01-30T03:50:41;100776.22;;;-2.88;100.00
83200;BME280;73092;49.132;8.920;2024-01-30T03:53:07;100779.44;;;-2.92;100.00
83200;BME280;73092;49.132;8.920;2024-01-30T03:55:33;100764.84;;;-2.93;100.00
83200;BME280;73092;49.132;8.920;2024-01-30T03:57:58;100777.03;;;-2.89;100.00
83200;BME280;73092;49.132;8.920;2024-01-30T04:00:24;100765.94;;;-2.88;100.00
83200;BME280;73092;49.132;8.920;2024-01-30T04:02:49;100767.53;;;-2.90;100.00
83200;BME280;73092;49.132;8.920;2024-01-30T04:05:16;100770.78;;;-2.94;100.00
83200;BME280;73092;49.132;8.920;2024-01-30T04:07:41;100772.25;;;-2.99;100.00
83200;BME280;73092;49.132;8.920;2024-01-30T04:10:07;100778.97;;;-3.03;100.00
83200;BME280;73092;49.132;8.920;2024-01-30T04:12:33;100776.28;;;-3.05;100.00
83200;BME280;73092;49.132;8.920;2024-01-30T04:14:58;100777.13;;;-3.06;100.00
83200;BME280;73092;49.132;8.920;2024-01-30T04:17:24;100774.16;;;-2.95;100.00
83200;BME280;73092;49.132;8.920;2024-01-30T04:19:49;100774.00;;;-2.98;100.00
83200;BME280;73092;49.132;8.920;2024-01-30T04:22:14;100772.13;;;-3.03;100.00
83200;BME280;73092;49.132;8.920;2024-01-30T04:24:40;100767.72;;;-3.05;100.00
83200;BME280;73092;49.132;8.920;2024-01-30T04:27:05;100777.41;;;-2.99;100.00
83200;BME280;73092;49.132;8.920;2024-01-30T04:29:30;100773.56;;;-3.08;100.00
83200;BME280;73092;49.132;8.920;2024-01-30T04:31:57;100777.56;;;-3.14;100.00
83200;BME280;73092;49.132;8.920;2024-01-30T04:34:22;100774.94;;;-3.16;100.00
83200;BME280;73092;49.132;8.920;2024-01-30T04:36:48;100773.00;;;-3.20;100.00
83200;BME280;73092;49.132;8.920;2024-01-30T04:39:13;100779.78;;;-3.22;100.00
83200;BME280;73092;49.132;8.920;2024-01-30T04:41:38;100778.13;;;-3.20;100.00
83200;BME280;73092;49.132;8.920;2024-01-30T04:44:04;100779.78;;;-3.22;100.00
83200;BME280;73092;49.132;8.920;2024-01-30T04:46:29;100778.00;;;-3.23;100.00
83200;BME280;73092;49.132;8.920;2024-01-30T04:48:54;100776.38;;;-3.21;100.00
83200;BME280;73092;49.132;8.920;2024-01-30T04:51:20;100778.91;;;-3.22;100.00
83200;BME280;73092;49.132;8.920;2024-01-30T04:53:45;100777.22;;;-3.22;100.00
83200;BME280;73092;49.132;8.920;2024-01-30T04:56:10;100776.25;;;-3.24;100.00
83200;BME280;73092;49.132;8.920;2024-01-30T04:58:36;100775.22;;;-3.28;100.00
83200;BME280;73092;49.132;8.920;2024-01-30T05:01:02;100785.41;;;-3.29;100.00
83200;BME280;73092;49.132;8.920;2024-01-30T05:03:27;100780.94;;;-3.33;100.00
83200;BME280;73092;49.132;8.920;2024-01-30T05:05:53;100784.63;;;-3.28;100.00
83200;BME280;73092;49.132;8.920;2024-01-30T05:08:18;100780.06;;;-3.34;100.00
83200;BME280;73092;49.132;8.920;2024-01-30T05:10:43;100775.22;;;-3.10;100.00
83200;BME280;73092;49.132;8.920;2024-01-30T05:13:09;100786.81;;;-3.18;100.00
83200;BME280;73092;49.132;8.920;2024-01-30T05:15:35;100784.91;;;-3.22;100.00
83200;BME280;73092;49.132;8.920;2024-01-30T05:18:00;100779.53;;;-3.27;100.00
83200;BME280;73092;49.132;8.920;2024-01-30T05:20:26;100783.00;;;-3.26;100.00
83200;BME280;73092;49.132;8.920;2024-01-30T05:22:53;100787.97;;;-3.29;100.00
83200;BME280;73092;49.132;8.920;2024-01-30T05:25:19;100786.22;;;-3.30;100.00
83200;BME280;73092;49.132;8.920;2024-01-30T05:27:44;100779.25;;;-3.33;100.00
83200;BME280;73092;49.132;8.920;2024-01-30T05:30:10;100785.34;;;-3.31;100.00
83200;BME280;73092;49.132;8.920;2024-01-30T05:32:35;100790.78;;;-3.24;100.00
83200;BME280;73092;49.132;8.920;2024-01-30T05:35:01;100786.22;;;-3.30;100.00
83200;BME280;73092;49.132;8.920;2024-01-30T05:37:26;100788.81;;;-3.30;100.00
83200;BME280;73092;49.132;8.920;2024-01-30T05:39:52;100793.13;;;-3.29;100.00
83200;BME280;73092;49.132;8.920;2024-01-30T05:42:18;100793.41;;;-3.23;100.00
83200;BME280;73092;49.132;8.920;2024-01-30T05:44:43;100794.03;;;-3.29;100.00
83200;BME280;73092;49.132;8.920;2024-01-30T05:47:09;100796.66;;;-3.27;100.00
83200;BME280;73092;49.132;8.920;2024-01-30T05:49:34;100788.94;;;-3.27;100.00
83200;BME280;73092;49.132;8.920;2024-01-30T05:52:01;100796.47;;;-3.32;100.00
83200;BME280;73092;49.132;8.920;2024-01-30T05:54:27;100801.34;;;-3.36;100.00
83200;BME280;73092;49.132;8.920;2024-01-30T05:56:52;100806.50;;;-3.36;100.00
83200;BME280;73092;49.132;8.920;2024-01-30T05:59:18;100798.28;;;-3.29;100.00
83200;BME280;73092;49.132;8.920;2024-01-30T06:01:47;100810.50;;;-3.25;100.00
83200;BME280;73092;49.132;8.920;2024-01-30T06:04:13;100809.47;;;-3.29;100.00
83200;BME280;73092;49.132;8.920;2024-01-30T06:06:38;100811.94;;;-3.30;100.00
83200;BME280;73092;49.132;8.920;2024-01-30T06:09:03;100803.41;;;-3.29;100.00
83200;BME280;73092;49.132;8.920;2024-01-30T06:11:29;100803.56;;;-3.26;100.00
83200;BME280;73092;49.132;8.920;2024-01-30T06:13:54;100812.38;;;-3.21;100.00
83200;BME280;73092;49.132;8.920;2024-01-30T06:16:19;100813.34;;;-3.19;100.00
83200;BME280;73092;49.132;8.920;2024-01-30T06:18:46;100807.25;;;-3.21;100.00
83200;BME280;73092;49.132;8.920;2024-01-30T06:21:12;100807.09;;;-3.24;100.00
83200;BME280;73092;49.132;8.920;2024-01-30T06:23:38;100808.69;;;-3.26;100.00
83200;BME280;73092;49.132;8.920;2024-01-30T06:26:03;100800.19;;;-3.25;100.00
83200;BME280;73092;49.132;8.920;2024-01-30T06:28:29;100806.81;;;-3.30;100.00
83200;BME280;73092;49.132;8.920;2024-01-30T06:30:54;100811.28;;;-3.26;100.00
83200;BME280;73092;49.132;8.920;2024-01-30T06:33:19;100805.25;;;-3.27;100.00
83200;BME280;73092;49.132;8.920;2024-01-30T06:35:45;100805.03;;;-3.31;100.00
83200;BME280;73092;49.132;8.920;2024-01-30T06:38:11;100807.63;;;-3.31;100.00
83200;BME280;73092;49.132;8.920;2024-01-30T06:40:36;100808.69;;;-3.26;100.00
83200;BME280;73092;49.132;8.920;2024-01-30T06:43:04;100806.56;;;-3.17;100.00
83200;BME280;73092;49.132;8.920;2024-01-30T06:45:31;100806.44;;;-3.20;100.00
83200;BME280;73092;49.132;8.920;2024-01-30T06:47:56;100803.72;;;-3.23;100.00
83200;BME280;73092;49.132;8.920;2024-01-30T06:50:21;100800.34;;;-3.22;100.00
83200;BME280;73092;49.132;8.920;2024-01-30T06:52:47;100803.72;;;-3.23;100.00
83200;BME280;73092;49.132;8.920;2024-01-30T06:55:12;100808.94;;;-3.21;100.00
83200;BME280;73092;49.132;8.920;2024-01-30T06:57:37;100808.06;;;-3.22;100.00
83200;BME280;73092;49.132;8.920;2024-01-30T07:00:03;100814.00;;;-3.23;100.00
83200;BME280;73092;49.132;8.920;2024-01-30T07:02:28;100805.34;;;-3.25;100.00
83200;BME280;73092;49.132;8.920;2024-01-30T07:04:54;100812.38;;;-3.21;100.00
83200;BME280;73092;49.132;8.920;2024-01-30T07:07:19;100814.22;;;-3.18;100.00
83200;BME280;73092;49.132;8.920;2024-01-30T07:09:45;100816.06;;;-3.16;100.00
83200;BME280;73092;49.132;8.920;2024-01-30T07:12:10;100823.78;;;-3.16;100.00
83200;BME280;73092;49.132;8.920;2024-01-30T07:14:35;100816.88;;;-2.99;100.00
83200;BME280;73092;49.132;8.920;2024-01-30T07:17:02;100821.19;;;-2.98;100.00
83200;BME280;73092;49.132;8.920;2024-01-30T07:19:33;100811.97;;;-2.94;100.00
83200;BME280;73092;49.132;8.920;2024-01-30T07:22:00;100816.00;;;-2.99;100.00
83200;BME280;73092;49.132;8.920;2024-01-30T07:24:25;100811.19;;;-2.92;100.00
83200;BME280;73092;49.132;8.920;2024-01-30T07:26:51;100802.97;;;-2.85;100.00
83200;BME280;73092;49.132;8.920;2024-01-30T07:29:16;100802.34;;;-2.79;100.00
83200;BME280;73092;49.132;8.920;2024-01-30T07:31:42;100806.03;;;-2.74;100.00
83200;BME280;73092;49.132;8.920;2024-01-30T07:34:08;100807.78;;;-2.73;100.00
83200;BME280;73092;49.132;8.920;2024-01-30T07:36:34;100799.28;;;-2.72;100.00
83200;BME280;73092;49.132;8.920;2024-01-30T07:38:59;100804.84;;;-2.63;100.00
83200;BME280;73092;49.132;8.920;2024-01-30T07:41:24;100807.72;;;-2.57;100.00
83200;BME280;73092;49.132;8.920;2024-01-30T07:43:50;100808.78;;;-2.51;100.00
83200;BME280;73092;49.132;8.920;2024-01-30T07:46:16;100816.13;;;-2.41;100.00
83200;BME280;73092;49.132;8.920;2024-01-30T07:48:41;100812.75;;;-2.40;100.00
83200;BME280;73092;49.132;8.920;2024-01-30T07:51:06;100819.88;;;-2.35;100.00
83200;BME280;73092;49.132;8.920;2024-01-30T07:53:32;100816.94;;;-2.23;100.00
83200;BME280;73092;49.132;8.920;2024-01-30T07:55:57;100818.13;;;-2.16;100.00
83200;BME280;73092;49.132;8.920;2024-01-30T07:58:22;100813.06;;;-2.13;100.00
83200;BME280;73092;49.132;8.920;2024-01-30T08:00:49;100826.31;;;-2.05;100.00
83200;BME280;73092;49.132;8.920;2024-01-30T08:03:14;100820.53;;;-2.00;100.00
83200;BME280;73092;49.132;8.920;2024-01-30T08:05:41;100818.16;;;-1.95;100.00
83200;BME280;73092;49.132;8.920;2024-01-30T08:08:07;100827.91;;;-1.88;100.00
83200;BME280;73092;49.132;8.920;2024-01-30T08:10:32;100827.38;;;-1.81;100.00
83200;BME280;73092;49.132;8.920;2024-01-30T08:12:57;100825.13;;;-1.73;100.00
83200;BME280;73092;49.132;8.920;2024-01-30T08:15:23;100823.00;;;-1.63;100.00
83200;BME280;73092;49.132;8.920;2024-01-30T08:17:48;100828.56;;;-1.53;100.00
83200;BME280;73092;49.132;8.920;2024-01-30T08:20:14;100820.25;;;-1.46;100.00
83200;BME280;73092;49.132;8.920;2024-01-30T08:22:39;100834.47;;;-1.35;100.00
83200;BME280;73092;49.132;8.920;2024-01-30T08:25:06;100837.53;;;-1.23;100.00
83200;BME280;73092;49.132;8.920;2024-01-30T08:27:31;100840.63;;;-1.10;100.00
83200;BME280;73092;49.132;8.920;2024-01-30T08:29:57;100842.06;;;-0.96;100.00
83200;BME280;73092;49.132;8.920;2024-01-30T08:32:22;100845.16;;;-0.84;100.00
83200;BME280;73092;49.132;8.920;2024-01-30T08:34:49;100852.19;;;-0.80;100.00
83200;BME280;73092;49.132;8.920;2024-01-30T08:37:15;100853.25;;;-0.75;100.00
83200;BME280;73092;49.132;8.920;2024-01-30T08:39:42;100851.72;;;-0.70;100.00
83200;BME280;73092;49.132;8.920;2024-01-30T08:42:08;100847.66;;;-0.63;100.00
83200;BME280;73092;49.132;8.920;2024-01-30T08:44:33;100850.56;;;-0.55;100.00
83200;BME280;73092;49.132;8.920;2024-01-30T08:46:58;100847.81;;;-0.37;100.00
83200;BME280;73092;49.132;8.920;2024-01-30T08:49:24;100843.69;;;-0.32;100.00
83200;BME280;73092;49.132;8.920;2024-01-30T08:51:49;100837.97;;;-0.24;100.00
83200;BME280;73092;49.132;8.920;2024-01-30T08:54:15;100846.84;;;-0.17;100.00
83200;BME280;73092;49.132;8.920;2024-01-30T08:56:41;100843.94;;;-0.02;100.00
83200;BME280;73092;49.132;8.920;2024-01-30T08:59:06;100844.50;;;0.13;100.00
83200;BME280;73092;49.132;8.920;2024-01-30T09:01:31;100847.31;;;0.19;100.00
83200;BME280;73092;49.132;8.920;2024-01-30T09:03:57;100857.38;;;0.37;100.00
83200;BME280;73092;49.132;8.920;2024-01-30T09:06:22;100858.91;;;0.56;100.00
83200;BME280;73092;49.132;8.920;2024-01-30T09:08:49;100856.59;;;0.64;100.00
83200;BME280;73092;49.132;8.920;2024-01-30T09:11:15;100867.38;;;0.76;100.00
83200;BME280;73092;49.132;8.920;2024-01-30T09:13:41;100859.06;;;0.86;100.00
83200;BME280;73092;49.132;8.920;2024-01-30T09:16:07;100860.44;;;1.02;100.00
83200;BME280;73092;49.132;8.920;2024-01-30T09:18:33;100858.13;;;1.10;100.00
83200;BME280;73092;49.132;8.920;2024-01-30T09:20:58;100858.44;;;1.21;100.00
83200;BME280;73092;49.132;8.920;2024-01-30T09:23:24;100850.19;;;1.32;100.00
83200;BME280;73092;49.132;8.920;2024-01-30T09:25:50;100852.69;;;1.58;100.00
83200;BME280;73092;49.132;8.920;2024-01-30T09:28:16;100850.03;;;1.56;99.59
83200;BME280;73092;49.132;8.920;2024-01-30T09:30:42;100852.59;;;1.55;100.00
83200;BME280;73092;49.132;8.920;2024-01-30T09:33:07;100857.78;;;1.55;100.00
83200;BME280;73092;49.132;8.920;2024-01-30T09:35:33;100854.25;;;1.53;99.08
83200;BME280;73092;49.132;8.920;2024-01-30T09:37:58;100850.31;;;1.66;99.63
83200;BME280;73092;49.132;8.920;2024-01-30T09:40:24;100862.56;;;1.70;99.80
83200;BME280;73092;49.132;8.920;2024-01-30T09:42:53;100850.69;;;1.78;99.95
83200;BME280;73092;49.132;8.920;2024-01-30T09:45:19;100868.09;;;1.82;98.62
83200;BME280;73092;49.132;8.920;2024-01-30T09:47:45;100868.28;;;1.88;98.62
83200;BME280;73092;49.132;8.920;2024-01-30T09:50:13;100875.50;;;1.98;98.78
83200;BME280;73092;49.132;8.920;2024-01-30T09:52:39;100877.50;;;2.08;98.52
83200;BME280;73092;49.132;8.920;2024-01-30T09:55:06;100881.22;;;2.17;98.91
83200;BME280;73092;49.132;8.920;2024-01-30T09:57:32;100877.69;;;2.15;99.17
83200;BME280;73092;49.132;8.920;2024-01-30T09:59:57;100876.91;;;2.19;98.70
83200;BME280;73092;49.132;8.920;2024-01-30T10:02:23;100867.66;;;2.27;98.08
83200;BME280;73092;49.132;8.920;2024-01-30T10:04:49;100863.41;;;2.29;98.27
83200;BME280;73092;49.132;8.920;2024-01-30T10:07:16;100873.34;;;2.45;97.70
83200;BME280;73092;49.132;8.920;2024-01-30T10:09:41;100863.25;;;2.56;97.72
83200;BME280;73092;49.132;8.920;2024-01-30T10:12:07;100868.72;;;2.67;98.34
83200;BME280;73092;49.132;8.920;2024-01-30T10:14:34;100861.69;;;2.63;97.45
83200;BME280;73092;49.132;8.920;2024-01-30T10:17:01;100866.28;;;2.73;97.57
83200;BME280;73092;49.132;8.920;2024-01-30T10:19:27;100867.50;;;2.87;97.62
83200;BME280;73092;49.132;8.920;2024-01-30T10:21:52;100868.44;;;2.91;96.52
83200;BME280;73092;49.132;8.920;2024-01-30T10:24:18;100864.44;;;3.04;96.92
83200;BME280;73092;49.132;8.920;2024-01-30T10:26:44;100863.72;;;3.09;96.53
83200;BME280;73092;49.132;8.920;2024-01-30T10:29:09;100851.22;;;3.29;95.10
83200;BME280;73092;49.132;8.920;2024-01-30T10:31:34;100858.38;;;3.39;95.39
83200;BME280;73092;49.132;8.920;2024-01-30T10:34:03;100863.84;;;3.52;94.57
83200;BME280;73092;49.132;8.920;2024-01-30T10:36:34;100869.06;;;3.52;94.27
83200;BME280;73092;49.132;8.920;2024-01-30T10:39:06;100862.22;;;3.57;93.72
83200;BME280;73092;49.132;8.920;2024-01-30T10:41:54;100857.34;;;3.72;94.23
83200;BME280;73092;49.132;8.920;2024-01-30T10:44:21;100859.53;;;3.54;93.11
83200;BME280;73092;49.132;8.920;2024-01-30T10:46:51;100859.13;;;3.73;93.17
83200;BME280;73092;49.132;8.920;2024-01-30T10:49:23;100855.09;;;3.87;93.37
83200;BME280;73092;49.132;8.920;2024-01-30T10:51:49;100855.94;;;3.86;92.04
83200;BME280;73092;49.132;8.920;2024-01-30T10:54:17;100849.13;;;3.93;91.92
83200;BME280;73092;49.132;8.920;2024-01-30T10:56:43;100859.88;;;4.10;91.61
83200;BME280;73092;49.132;8.920;2024-01-30T10:59:10;100857.25;;;4.08;91.50
83200;BME280;73092;49.132;8.920;2024-01-30T11:01:39;100858.75;;;3.97;92.00
83200;BME280;73092;49.132;8.920;2024-01-30T11:04:05;100862.22;;;3.98;91.18
83200;BME280;73092;49.132;8.920;2024-01-30T11:06:31;100860.69;;;4.06;91.43
83200;BME280;73092;49.132;8.920;2024-01-30T11:09:03;100854.97;;;4.25;92.30
83200;BME280;73092;49.132;8.920;2024-01-30T11:11:29;100859.94;;;4.13;91.45
83200;BME280;73092;49.132;8.920;2024-01-30T11:13:54;100861.34;;;4.39;89.49
83200;BME280;73092;49.132;8.920;2024-01-30T11:16:20;100857.88;;;4.39;90.64
83200;BME280;73092;49.132;8.920;2024-01-30T11:18:50;100854.34;;;4.38;90.49
83200;BME280;73092;49.132;8.920;2024-01-30T11:21:16;100863.06;;;4.39;90.50
83200;BME280;73092;49.132;8.920;2024-01-30T11:23:42;100857.09;;;4.45;90.54
83200;BME280;73092;49.132;8.920;2024-01-30T11:26:11;100860.91;;;4.63;90.81
83200;BME280;73092;49.132;8.920;2024-01-30T11:28:37;100856.06;;;4.83;89.53
83200;BME280;73092;49.132;8.920;2024-01-30T11:31:06;100852.44;;;4.75;89.15
83200;BME280;73092;49.132;8.920;2024-01-30T11:33:32;100850.97;;;4.90;89.28
83200;BME280;73092;49.132;8.920;2024-01-30T11:38:42;100849.38;;;5.01;88.35
83200;BME280;73092;49.132;8.920;2024-01-30T11:41:10;100839.06;;;5.07;87.90
83200;BME280;73092;49.132;8.920;2024-01-30T11:43:35;100831.13;;;5.01;86.47
83200;BME280;73092;49.132;8.920;2024-01-30T11:46:01;100828.72;;;5.13;87.07
83200;BME280;73092;49.132;8.920;2024-01-30T11:48:28;100832.16;;;5.09;86.06
83200;BME280;73092;49.132;8.920;2024-01-30T11:50:54;100828.72;;;5.13;86.96
83200;BME280;73092;49.132;8.920;2024-01-30T11:53:19;100826.53;;;5.39;85.88
83200;BME280;73092;49.132;8.920;2024-01-30T11:55:50;100824.88;;;5.46;85.94
83200;BME280;73092;49.132;8.920;2024-01-30T11:58:18;100813.59;;;5.47;85.84
83200;BME280;73092;49.132;8.920;2024-01-30T12:00:53;100811.97;;;5.55;85.91
83200;BME280;73092;49.132;8.920;2024-01-30T12:03:18;100814.38;;;5.41;84.36
83200;BME280;73092;49.132;8.920;2024-01-30T12:05:43;100809.25;;;5.46;85.02
83200;BME280;73092;49.132;8.920;2024-01-30T12:08:15;100804.94;;;5.51;85.47
83200;BME280;73092;49.132;8.920;2024-01-30T12:10:41;100806.81;;;5.58;84.74
83200;BME280;73092;49.132;8.920;2024-01-30T12:13:07;100802.38;;;5.54;84.83
83200;BME280;73092;49.132;8.920;2024-01-30T12:15:32;100811.19;;;5.62;84.82
83200;BME280;73092;49.132;8.920;2024-01-30T12:18:07;100814.75;;;5.69;83.95
83200;BME280;73092;49.132;8.920;2024-01-30T12:20:33;100806.19;;;5.79;84.26
83200;BME280;73092;49.132;8.920;2024-01-30T12:22:58;100798.38;;;5.80;83.96
83200;BME280;73092;49.132;8.920;2024-01-30T12:25:23;100804.59;;;5.90;84.20
83200;BME280;73092;49.132;8.920;2024-01-30T12:27:50;100791.47;;;5.86;84.09
83200;BME280;73092;49.132;8.920;2024-01-30T12:30:16;100795.88;;;5.91;84.20
83200;BME280;73092;49.132;8.920;2024-01-30T12:32:44;100792.38;;;5.88;84.08
83200;BME280;73092;49.132;8.920;2024-01-30T12:35:12;100791.72;;;6.04;82.22
83200;BME280;73092;49.132;8.920;2024-01-30T12:37:41;100798.59;;;5.96;82.81
83200;BME280;73092;49.132;8.920;2024-01-30T12:40:08;100784.69;;;5.97;82.35
83200;BME280;73092;49.132;8.920;2024-01-30T12:42:34;100789.13;;;6.06;82.89